createdAt,value
2022-11-12T00:02:03.951Z,102038.16
2022-11-12T00:04:30.255Z,102034.50
2022-11-12T00:06:56.519Z,102038.97
2022-11-12T00:09:22.772Z,102039.16
2022-11-12T00:11:48.962Z,102033.59
2022-11-12T00:14:15.179Z,102027.72
2022-11-12T00:16:41.381Z,102033.19
2022-11-12T00:19:07.909Z,102027.75
2022-11-12T00:21:34.148Z,102031.38
2022-11-12T00:24:00.346Z,102038.50
2022-11-12T00:26:26.544Z,102036.94
2022-11-12T00:28:52.738Z,102033.94
2022-11-12T00:31:18.941Z,102040.72
2022-11-12T00:33:45.199Z,102042.97
2022-11-12T00:36:11.449Z,102038.56
2022-11-12T00:38:37.672Z,102035.13
2022-11-12T00:41:03.883Z,102045.00
2022-11-12T00:43:30.128Z,102030.09
2022-11-12T00:45:56.356Z,102033.47
2022-11-12T00:48:22.739Z,102036.53
2022-11-12T00:50:49.060Z,102032.34
2022-11-12T00:53:15.295Z,102031.91
2022-11-12T00:55:41.500Z,102030.88
2022-11-12T00:58:07.700Z,102037.81
2022-11-12T01:00:33.903Z,102032.38
2022-11-12T01:03:00.154Z,102045.34
2022-11-12T01:05:26.349Z,102036.22
2022-11-12T01:07:55.949Z,102045.06
2022-11-12T01:10:22.560Z,102048.78
2022-11-12T01:12:48.746Z,102036.22
2022-11-12T01:15:16.668Z,102037.09
2022-11-12T01:17:42.926Z,102041.56
2022-11-12T01:20:09.119Z,102039.97
2022-11-12T01:22:35.364Z,102035.75
2022-11-12T01:25:01.589Z,102034.81
2022-11-12T01:27:27.786Z,102042.63
2022-11-12T01:29:54.028Z,102036.50
2022-11-12T01:32:20.265Z,102036.28
2022-11-12T01:34:46.481Z,102038.16
2022-11-12T01:37:12.682Z,102034.63
2022-11-12T01:39:38.892Z,102029.31
2022-11-12T01:42:05.099Z,102031.25
2022-11-12T01:44:31.418Z,102031.00
2022-11-12T01:46:57.853Z,102039.72
2022-11-12T01:49:24.049Z,102028.22
2022-11-12T01:51:50.266Z,102041.00
2022-11-12T01:54:16.480Z,102029.63
2022-11-12T01:56:42.787Z,102032.03
2022-11-12T01:59:09.046Z,102032.84
2022-11-12T02:01:35.308Z,102036.63
2022-11-12T02:04:01.669Z,102032.25
2022-11-12T02:06:27.933Z,102022.19
2022-11-12T02:08:54.298Z,102027.44
2022-11-12T02:11:20.482Z,102023.06
2022-11-12T02:14:00.809Z,102029.22
2022-11-12T02:16:27.014Z,102017.97
2022-11-12T02:18:53.204Z,102021.31
2022-11-12T02:21:19.400Z,102018.69
2022-11-12T02:23:45.596Z,102025.72
2022-11-12T02:26:11.786Z,102016.25
2022-11-12T02:28:37.979Z,102022.47
2022-11-12T02:31:04.183Z,102030.44
2022-11-12T02:33:30.383Z,102028.75
2022-11-12T02:35:56.598Z,102022.78
2022-11-12T02:38:22.956Z,102022.69
2022-11-12T02:40:49.308Z,102019.06
2022-11-12T02:43:15.512Z,102021.59
2022-11-12T02:45:41.711Z,102019.06
2022-11-12T02:48:07.909Z,102020.84
2022-11-12T02:50:34.110Z,102029.63
2022-11-12T02:53:00.331Z,102021.94
2022-11-12T02:55:26.527Z,102028.16
2022-11-12T02:57:52.736Z,102026.41
2022-11-12T03:00:18.928Z,102028.16
2022-11-12T03:02:58.812Z,102032.34
2022-11-12T03:05:25.132Z,102038.41
2022-11-12T03:07:51.830Z,102037.25
2022-11-12T03:10:18.018Z,102035.53
2022-11-12T03:12:44.220Z,102032.44
2022-11-12T03:15:10.419Z,102033.09
2022-11-12T03:17:36.607Z,102027.66
2022-11-12T03:20:02.825Z,102030.44
2022-11-12T03:22:29.012Z,102029.47
2022-11-12T03:24:55.247Z,102032.25
2022-11-12T03:27:21.437Z,102028.75
2022-11-12T03:29:47.650Z,102033.16
2022-11-12T03:32:13.886Z,102036.81
2022-11-12T03:34:40.084Z,102030.22
2022-11-12T03:37:09.403Z,102041.00
2022-11-12T03:39:36.126Z,102037.06
2022-11-12T03:42:02.314Z,102032.47
2022-11-12T03:44:28.768Z,102039.72
2022-11-12T03:46:55.018Z,102045.88
2022-11-12T03:49:21.210Z,102038.75
2022-11-12T03:51:47.495Z,102039.63
2022-11-12T03:54:13.697Z,102035.22
2022-11-12T03:56:39.894Z,102038.66
2022-11-12T03:59:06.084Z,102033.34
2022-11-12T04:01:32.354Z,102036.06
2022-11-12T04:03:58.595Z,102036.22
2022-11-12T04:06:43.478Z,102031.19
2022-11-12T04:09:09.683Z,102041.63
2022-11-12T04:11:36.011Z,102026.97
2022-11-12T04:14:02.252Z,102035.47
2022-11-12T04:16:47.036Z,102036.75
2022-11-12T04:19:31.722Z,102037.69
2022-11-12T04:21:57.951Z,102037.25
2022-11-12T04:24:42.720Z,102044.28
2022-11-12T04:27:08.939Z,102029.97
2022-11-12T04:29:53.632Z,102045.91
2022-11-12T04:32:19.840Z,102045.06
2022-11-12T04:34:46.088Z,102033.47
2022-11-12T04:37:12.353Z,102035.34
2022-11-12T04:39:38.557Z,102034.47
2022-11-12T04:42:23.407Z,102043.25
2022-11-12T04:45:05.021Z,102043.28
2022-11-12T04:47:31.294Z,102046.03
2022-11-12T04:49:57.522Z,102045.16
2022-11-12T04:52:23.719Z,102043.28
2022-11-12T04:54:49.958Z,102041.63
2022-11-12T04:57:16.156Z,102042.50
2022-11-12T04:59:42.424Z,102049.59
2022-11-12T05:02:08.612Z,102052.25
2022-11-12T05:04:34.807Z,102051.59
2022-11-12T05:07:01.100Z,102055.91
2022-11-12T05:09:27.310Z,102056.66
2022-11-12T05:11:55.167Z,102053.25
2022-11-12T05:14:21.416Z,102059.41
2022-11-12T05:16:47.688Z,102052.47
2022-11-12T05:19:13.895Z,102055.97
2022-11-12T05:21:59.027Z,102061.28
2022-11-12T05:24:40.976Z,102064.69
2022-11-12T05:27:07.983Z,102067.25
2022-11-12T05:29:34.218Z,102068.34
2022-11-12T05:32:00.511Z,102069.28
2022-11-12T05:34:26.745Z,102077.25
2022-11-12T05:36:52.958Z,102070.13
2022-11-12T05:39:19.273Z,102071.16
2022-11-12T05:42:11.466Z,102071.88
2022-11-12T05:44:31.688Z,102071.06
2022-11-12T05:46:57.879Z,102074.53
2022-11-12T05:49:24.066Z,102075.47
2022-11-12T05:51:50.311Z,102078.88
2022-11-12T05:54:16.499Z,102076.16
2022-11-12T05:56:42.732Z,102086.00
2022-11-12T05:59:09.079Z,102075.22
2022-11-12T06:01:38.241Z,102078.81
2022-11-12T06:04:04.469Z,102084.91
2022-11-12T06:06:30.664Z,102081.38
2022-11-12T06:08:57.040Z,102082.44
2022-11-12T06:11:23.244Z,102079.66
2022-11-12T06:13:49.444Z,102087.66
2022-11-12T06:16:15.631Z,102080.69
2022-11-12T06:18:41.823Z,102072.53
2022-11-12T06:21:20.252Z,102090.47
2022-11-12T06:23:46.440Z,102090.41
2022-11-12T06:26:12.622Z,102090.66
2022-11-12T06:28:38.849Z,102086.88
2022-11-12T06:31:05.066Z,102096.66
2022-11-12T06:33:31.320Z,102089.53
2022-11-12T06:35:57.954Z,102089.28
2022-11-12T06:38:24.776Z,102091.88
2022-11-12T06:40:51.169Z,102099.94
2022-11-12T06:43:17.357Z,102087.53
2022-11-12T06:45:43.551Z,102095.56
2022-11-12T06:48:09.742Z,102097.25
2022-11-12T06:50:35.934Z,102098.97
2022-11-12T06:53:02.140Z,102101.53
2022-11-12T06:55:28.327Z,102093.44
2022-11-12T06:57:54.579Z,102104.16
2022-11-12T07:00:20.796Z,102104.28
2022-11-12T07:02:47.166Z,102115.59
2022-11-12T07:05:13.363Z,102109.41
2022-11-12T07:07:39.942Z,102105.63
2022-11-12T07:10:06.171Z,102106.34
2022-11-12T07:12:32.364Z,102110.84
2022-11-12T07:14:58.583Z,102106.56
2022-11-12T07:17:24.773Z,102106.47
2022-11-12T07:19:50.958Z,102102.97
2022-11-12T07:22:17.302Z,102102.97
2022-11-12T07:24:43.553Z,102104.72
2022-11-12T07:27:09.748Z,102108.00
2022-11-12T07:29:47.467Z,102105.81
2022-11-12T07:32:14.526Z,102101.31
2022-11-12T07:34:40.726Z,102107.47
2022-11-12T07:37:06.956Z,102108.38
2022-11-12T07:39:33.169Z,102110.06
2022-11-12T07:41:59.359Z,102106.22
2022-11-12T07:44:25.981Z,102109.81
2022-11-12T07:46:52.196Z,102112.53
2022-11-12T07:49:18.393Z,102110.56
2022-11-12T07:51:44.599Z,102103.53
2022-11-12T07:54:10.788Z,102105.06
2022-11-12T07:56:37.002Z,102101.50
2022-11-12T07:59:03.279Z,102104.19
2022-11-12T08:01:29.558Z,102102.34
2022-11-12T08:03:55.808Z,102110.59
2022-11-12T08:06:22.026Z,102101.69
2022-11-12T08:08:48.219Z,102094.84
2022-11-12T08:11:14.452Z,102101.59
2022-11-12T08:13:40.708Z,102095.91
2022-11-12T08:16:06.891Z,102098.84
2022-11-12T08:18:34.085Z,102100.66
2022-11-12T08:21:00.560Z,102094.50
2022-11-12T08:23:26.767Z,102096.59
2022-11-12T08:25:53.007Z,102106.19
2022-11-12T08:28:19.258Z,102104.34
2022-11-12T08:30:45.461Z,102103.25
2022-11-12T08:33:11.712Z,102102.31
2022-11-12T08:35:38.008Z,102097.63
2022-11-12T08:38:07.776Z,102102.47
2022-11-12T08:40:34.012Z,102102.09
2022-11-12T08:43:00.297Z,102102.44
2022-11-12T08:45:26.534Z,102098.31
2022-11-12T08:47:52.831Z,102099.88
2022-11-12T08:50:19.057Z,102097.69
2022-11-12T08:52:45.267Z,102088.75
2022-11-12T08:55:11.454Z,102097.47
2022-11-12T08:57:37.658Z,102092.34
2022-11-12T09:00:03.863Z,102101.13
2022-11-12T09:02:33.520Z,102103.78
2022-11-12T09:04:59.724Z,102108.13
2022-11-12T09:07:48.860Z,102101.00
2022-11-12T09:10:12.110Z,102105.59
2022-11-12T09:12:38.427Z,102094.03
2022-11-12T09:15:35.866Z,102105.84
2022-11-12T09:17:51.245Z,102097.47
2022-11-12T09:20:17.519Z,102090.69
2022-11-12T09:22:43.763Z,102091.31
2022-11-12T09:25:09.974Z,102091.22
2022-11-12T09:27:36.241Z,102085.66
2022-11-12T09:30:02.534Z,102086.41
2022-11-12T09:32:29.214Z,102084.03
2022-11-12T09:34:55.549Z,102080.22
2022-11-12T09:37:21.958Z,102078.22
2022-11-12T09:39:48.217Z,102087.72
2022-11-12T09:42:14.610Z,102092.63
2022-11-12T09:44:40.871Z,102082.91
2022-11-12T09:47:07.988Z,102080.91
2022-11-12T09:49:34.206Z,102077.78
2022-11-12T09:52:00.462Z,102083.34
2022-11-12T09:54:27.007Z,102080.63
2022-11-12T09:56:53.263Z,102082.88
2022-11-12T09:59:19.588Z,102080.72
2022-11-12T10:01:45.916Z,102082.72
2022-11-12T10:04:12.216Z,102078.09
2022-11-12T10:06:38.519Z,102077.06
2022-11-12T10:09:04.803Z,102080.78
2022-11-12T10:11:31.180Z,102077.41
2022-11-12T10:13:57.461Z,102085.31
2022-11-12T10:16:53.476Z,102079.63
2022-11-12T10:19:19.739Z,102077.25
2022-11-12T10:21:46.009Z,102078.69
2022-11-12T10:24:12.268Z,102078.44
2022-11-12T10:26:38.533Z,102074.94
2022-11-12T10:29:04.796Z,102081.09
2022-11-12T10:31:31.063Z,102078.22
2022-11-12T10:33:57.315Z,102070.41
2022-11-12T10:36:23.618Z,102065.03
2022-11-12T10:38:49.911Z,102060.84
2022-11-12T10:41:16.186Z,102059.53
2022-11-12T10:43:42.441Z,102062.09
2022-11-12T10:46:08.789Z,102057.25
2022-11-12T10:48:36.104Z,102064.97
2022-11-12T10:51:04.086Z,102058.25
2022-11-12T10:53:30.263Z,102060.03
2022-11-12T10:55:56.694Z,102059.22
2022-11-12T10:58:22.972Z,102065.41
2022-11-12T11:00:49.298Z,102061.53
2022-11-12T11:03:16.086Z,102062.22
2022-11-12T11:05:42.347Z,102055.28
2022-11-12T11:08:08.609Z,102051.47
2022-11-12T11:10:34.878Z,102051.97
2022-11-12T11:13:01.144Z,102060.28
2022-11-12T11:15:27.394Z,102053.94
2022-11-12T11:17:53.679Z,102066.16
2022-11-12T11:20:20.220Z,102048.84
2022-11-12T11:22:46.484Z,102055.03
2022-11-12T11:25:12.756Z,102047.25
2022-11-12T11:27:39.085Z,102052.84
2022-11-12T11:30:05.362Z,102055.44
2022-11-12T11:32:37.023Z,102047.75
2022-11-12T11:35:03.784Z,102049.66
2022-11-12T11:37:31.426Z,102050.00
2022-11-12T11:39:57.678Z,102046.72
2022-11-12T11:42:23.940Z,102035.69
2022-11-12T11:44:50.218Z,102025.19
2022-11-12T11:47:16.491Z,102031.78
2022-11-12T11:49:43.222Z,102029.25
2022-11-12T11:52:09.483Z,102016.97
2022-11-12T11:54:35.790Z,102015.38
2022-11-12T11:57:02.042Z,102021.94
2022-11-12T11:59:28.486Z,102011.81
2022-11-12T12:01:54.752Z,102003.38
2022-11-12T12:04:21.055Z,102007.88
2022-11-12T12:06:47.358Z,102007.69
2022-11-12T12:09:13.652Z,102008.84
2022-11-12T12:11:39.914Z,102005.81
2022-11-12T12:14:06.166Z,101994.47
2022-11-12T12:16:32.435Z,101989.97
2022-11-12T12:18:58.707Z,101990.06
2022-11-12T12:21:26.406Z,101998.28
2022-11-12T12:23:52.693Z,101988.13
2022-11-12T12:26:18.950Z,101980.06
2022-11-12T12:28:45.289Z,101982.28
2022-11-12T12:31:11.551Z,101984.19
2022-11-12T12:33:37.824Z,101982.41
2022-11-12T12:36:04.100Z,101981.88
2022-11-12T12:38:31.970Z,101975.38
2022-11-12T12:40:58.848Z,101977.47
2022-11-12T12:43:25.158Z,101981.81
2022-11-12T12:45:54.460Z,101970.88
2022-11-12T12:48:20.774Z,101977.56
2022-11-12T12:50:47.063Z,101968.69
2022-11-12T12:53:13.321Z,101968.94
2022-11-12T12:55:41.402Z,101970.41
2022-11-12T12:58:07.601Z,101974.97
2022-11-12T13:00:33.985Z,101972.19
2022-11-12T13:03:00.328Z,101973.56
2022-11-12T13:05:26.603Z,101969.91
2022-11-12T13:07:52.860Z,101971.66
2022-11-12T13:10:19.257Z,101969.66
2022-11-12T13:12:47.599Z,101970.97
2022-11-12T13:15:13.922Z,101968.38
2022-11-12T13:17:40.211Z,101967.13
2022-11-12T13:20:07.435Z,101973.47
2022-11-12T13:22:33.715Z,101977.66
2022-11-12T13:24:59.969Z,101975.00
2022-11-12T13:27:26.242Z,101963.75
2022-11-12T13:30:18.282Z,101972.25
2022-11-12T13:32:44.732Z,101976.09
2022-11-12T13:35:10.991Z,101965.97
2022-11-12T13:37:37.419Z,101966.59
2022-11-12T13:40:03.952Z,101961.66
2022-11-12T13:42:48.431Z,101959.81
2022-11-12T13:45:14.684Z,101953.22
2022-11-12T13:47:40.933Z,101958.16
2022-11-12T13:50:07.286Z,101946.06
2022-11-12T13:52:33.616Z,101947.09
2022-11-12T13:54:59.887Z,101940.59
2022-11-12T13:57:26.937Z,101943.13
2022-11-12T13:59:53.133Z,101949.22
2022-11-12T14:02:19.387Z,101939.63
2022-11-12T14:04:45.650Z,101942.50
2022-11-12T14:07:11.963Z,101949.41
2022-11-12T14:09:38.807Z,101943.78
2022-11-12T14:12:05.116Z,101936.69
2022-11-12T14:14:31.378Z,101946.22
2022-11-12T14:16:57.730Z,101950.63
2022-11-12T14:19:23.995Z,101946.97
2022-11-12T14:21:50.258Z,101940.63
2022-11-12T14:24:16.519Z,101937.16
2022-11-12T14:26:42.838Z,101950.69
2022-11-12T14:29:09.108Z,101941.66
2022-11-12T14:31:35.423Z,101934.94
2022-11-12T14:34:01.683Z,101933.72
2022-11-12T14:36:29.528Z,101935.75
2022-11-12T14:38:55.987Z,101930.03
2022-11-12T14:41:22.262Z,101931.13
2022-11-12T14:43:50.139Z,101930.63
2022-11-12T14:46:21.284Z,101928.22
2022-11-12T14:48:47.587Z,101922.44
2022-11-12T14:51:13.898Z,101926.44
2022-11-12T14:53:40.178Z,101925.75
2022-11-12T14:56:06.448Z,101927.16
2022-11-12T14:58:33.008Z,101937.66
2022-11-12T15:00:59.329Z,101921.75
2022-11-12T15:03:25.995Z,101918.81
2022-11-12T15:05:52.619Z,101928.59
2022-11-12T15:08:18.871Z,101931.97
2022-11-12T15:10:45.151Z,101931.31
2022-11-12T15:13:11.442Z,101930.94
2022-11-12T15:15:37.708Z,101931.28
2022-11-12T15:18:04.080Z,101935.34
2022-11-12T15:20:30.371Z,101935.00
2022-11-12T15:22:56.638Z,101931.41
2022-11-12T15:25:23.055Z,101931.50
2022-11-12T15:27:49.375Z,101923.25
2022-11-12T15:30:16.214Z,101924.50
2022-11-12T15:32:42.504Z,101922.59
2022-11-12T15:35:08.792Z,101929.69
2022-11-12T15:37:35.066Z,101928.31
2022-11-12T15:40:01.824Z,101927.28
2022-11-12T15:42:28.179Z,101932.16
2022-11-12T15:44:54.444Z,101922.19
2022-11-12T15:47:21.456Z,101921.75
2022-11-12T15:49:47.920Z,101923.53
2022-11-12T15:52:14.180Z,101932.59
2022-11-12T15:54:41.333Z,101918.97
2022-11-12T15:57:07.690Z,101916.22
2022-11-12T15:59:33.963Z,101921.13
2022-11-12T16:02:00.212Z,101925.53
2022-11-12T16:04:26.495Z,101931.94
2022-11-12T16:06:52.795Z,101929.50
2022-11-12T16:09:19.102Z,101920.94
2022-11-12T16:11:45.378Z,101919.34
2022-11-12T16:14:11.693Z,101917.41
2022-11-12T16:16:39.603Z,101917.88
2022-11-12T16:19:05.879Z,101922.97
2022-11-12T16:21:32.312Z,101920.59
2022-11-12T16:23:58.588Z,101917.81
2022-11-12T16:26:26.335Z,101920.13
2022-11-12T16:28:52.592Z,101927.84
2022-11-12T16:31:18.926Z,101920.09
2022-11-12T16:33:45.224Z,101918.66
2022-11-12T16:36:11.512Z,101923.47
2022-11-12T16:38:37.791Z,101924.19
2022-11-12T16:41:04.125Z,101915.94
2022-11-12T16:43:30.667Z,101917.03
2022-11-12T16:45:57.016Z,101923.69
2022-11-12T16:48:23.212Z,101913.16
2022-11-12T16:50:49.715Z,101915.97
2022-11-12T16:53:15.969Z,101915.16
2022-11-12T16:55:42.286Z,101911.22
2022-11-12T16:58:08.687Z,101911.09
2022-11-12T17:00:35.189Z,101917.81
2022-11-12T17:03:01.485Z,101912.19
2022-11-12T17:05:27.768Z,101907.59
2022-11-12T17:07:54.037Z,101923.81
2022-11-12T17:10:23.922Z,101908.34
2022-11-12T17:12:50.153Z,101902.25
2022-11-12T17:15:16.414Z,101917.94
2022-11-12T17:17:42.647Z,101909.56
2022-11-12T17:20:08.958Z,101897.97
2022-11-12T17:22:35.546Z,101903.06
2022-11-12T17:25:01.746Z,101906.06
2022-11-12T17:27:27.943Z,101896.44
2022-11-12T17:29:54.155Z,101901.63
2022-11-12T17:32:20.406Z,101901.16
2022-11-12T17:34:46.698Z,101908.13
2022-11-12T17:37:12.918Z,101913.09
2022-11-12T17:39:39.120Z,101909.16
2022-11-12T17:42:05.341Z,101901.88
2022-11-12T17:44:31.615Z,101904.91
2022-11-12T17:46:57.801Z,101907.56
2022-11-12T17:49:24.538Z,101906.09
2022-11-12T17:51:50.736Z,101894.25
2022-11-12T17:54:16.939Z,101906.75
2022-11-12T17:56:43.198Z,101897.50
2022-11-12T17:59:09.458Z,101914.50
2022-11-12T18:01:35.814Z,101914.28
2022-11-12T18:04:02.131Z,101903.28
2022-11-12T18:06:28.346Z,101916.69
2022-11-12T18:08:54.557Z,101906.91
2022-11-12T18:11:20.746Z,101918.88
2022-11-12T18:13:46.941Z,101913.00
2022-11-12T18:16:14.805Z,101907.53
2022-11-12T18:18:41.220Z,101915.81
2022-11-12T18:21:07.475Z,101909.78
2022-11-12T18:23:33.661Z,101915.19
2022-11-12T18:26:01.680Z,101914.38
2022-11-12T18:28:27.943Z,101920.41
2022-11-12T18:30:54.142Z,101899.31
2022-11-12T18:33:20.350Z,101911.75
2022-11-12T18:35:48.314Z,101916.53
2022-11-12T18:38:14.576Z,101904.56
2022-11-12T18:40:40.796Z,101909.16
2022-11-12T18:43:06.979Z,101901.00
2022-11-12T18:45:33.339Z,101912.00
2022-11-12T18:47:59.546Z,101906.91
2022-11-12T18:50:25.817Z,101917.06
2022-11-12T18:52:52.009Z,101903.56
2022-11-12T18:55:18.240Z,101899.09
2022-11-12T18:57:44.424Z,101905.91
2022-11-12T19:00:10.614Z,101900.50
2022-11-12T19:02:36.824Z,101901.00
2022-11-12T19:05:03.002Z,101904.22
2022-11-12T19:07:29.282Z,101895.88
2022-11-12T19:09:55.476Z,101887.38
2022-11-12T19:12:21.672Z,101901.63
2022-11-12T19:14:47.863Z,101896.34
2022-11-12T19:17:14.049Z,101901.72
2022-11-12T19:19:40.265Z,101905.56
2022-11-12T19:22:06.680Z,101895.56
2022-11-12T19:24:32.891Z,101898.88
2022-11-12T19:26:59.114Z,101897.59
2022-11-12T19:29:25.330Z,101903.78
2022-11-12T19:31:51.545Z,101906.59
2022-11-12T19:34:17.738Z,101905.16
2022-11-12T19:36:43.933Z,101906.13
2022-11-12T19:39:10.140Z,101915.41
2022-11-12T19:41:36.331Z,101917.16
2022-11-12T19:44:04.236Z,101919.41
2022-11-12T19:46:32.343Z,101914.34
2022-11-12T19:48:58.606Z,101923.31
2022-11-12T19:51:24.875Z,101915.81
2022-11-12T19:53:51.100Z,101921.06
2022-11-12T19:56:17.472Z,101917.16
2022-11-12T19:58:43.685Z,101914.22
2022-11-12T20:01:09.919Z,101919.22
2022-11-12T20:03:36.166Z,101901.50
2022-11-12T20:06:02.373Z,101904.91
2022-11-12T20:08:29.019Z,101898.94
2022-11-12T20:10:55.398Z,101899.97
2022-11-12T20:13:21.637Z,101904.34
2022-11-12T20:15:47.843Z,101900.28
2022-11-12T20:18:14.037Z,101897.44
2022-11-12T20:20:40.272Z,101907.03
2022-11-12T20:23:06.518Z,101900.59
2022-11-12T20:25:32.711Z,101904.75
2022-11-12T20:27:58.919Z,101907.88
2022-11-12T20:30:25.120Z,101903.59
2022-11-12T20:32:51.329Z,101908.28
2022-11-12T20:35:22.011Z,101891.84
2022-11-12T20:37:49.997Z,101894.16
2022-11-12T20:40:16.265Z,101892.84
2022-11-12T20:42:42.894Z,101899.66
2022-11-12T20:45:09.087Z,101898.53
2022-11-12T20:47:35.341Z,101894.03
2022-11-12T20:50:01.551Z,101901.91
2022-11-12T20:52:27.774Z,101889.25
2022-11-12T20:54:53.959Z,101900.41
2022-11-12T20:57:20.159Z,101898.72
2022-11-12T20:59:49.132Z,101891.00
2022-11-12T21:02:17.392Z,101891.66
2022-11-12T21:04:43.849Z,101892.72
2022-11-12T21:07:10.369Z,101892.22
2022-11-12T21:09:36.620Z,101886.78
2022-11-12T21:12:02.808Z,101884.94
2022-11-12T21:14:28.997Z,101877.94
2022-11-12T21:16:55.191Z,101887.94
2022-11-12T21:19:21.402Z,101879.00
2022-11-12T21:21:47.586Z,101877.97
2022-11-12T21:24:13.968Z,101876.47
2022-11-12T21:26:40.211Z,101880.91
2022-11-12T21:29:07.148Z,101880.13
2022-11-12T21:31:33.362Z,101884.72
2022-11-12T21:34:00.423Z,101874.00
2022-11-12T21:36:26.615Z,101873.69
2022-11-12T21:38:52.922Z,101865.22
2022-11-12T21:41:19.118Z,101866.03
2022-11-12T21:43:45.522Z,101868.34
2022-11-12T21:46:11.735Z,101869.75
2022-11-12T21:48:37.922Z,101869.78
2022-11-12T21:51:04.159Z,101872.16
2022-11-12T21:53:30.367Z,101864.22
2022-11-12T21:55:56.554Z,101869.97
2022-11-12T21:58:22.757Z,101866.03
2022-11-12T22:00:48.952Z,101863.13
2022-11-12T22:03:15.211Z,101867.31
2022-11-12T22:05:41.395Z,101867.16
2022-11-12T22:08:07.655Z,101864.19
2022-11-12T22:10:33.898Z,101865.72
2022-11-12T22:13:25.320Z,101861.06
2022-11-12T22:15:46.348Z,101857.94
2022-11-12T22:18:12.582Z,101857.94
2022-11-12T22:20:38.783Z,101857.94
2022-11-12T22:23:05.004Z,101859.50
2022-11-12T22:25:31.194Z,101848.84
2022-11-12T22:28:01.193Z,101843.81
2022-11-12T22:30:27.388Z,101848.50
2022-11-12T22:32:53.643Z,101848.16
2022-11-12T22:35:19.821Z,101846.13
2022-11-12T22:37:46.080Z,101838.13
2022-11-12T22:40:13.655Z,101839.97
2022-11-12T22:42:40.095Z,101834.75
2022-11-12T22:45:06.289Z,101839.44
2022-11-12T22:47:32.526Z,101833.53
2022-11-12T22:49:58.859Z,101840.28
2022-11-12T22:52:25.046Z,101835.78
2022-11-12T22:54:51.232Z,101832.19
2022-11-12T22:57:17.428Z,101823.34
2022-11-12T22:59:43.675Z,101828.31
2022-11-12T23:02:09.867Z,101823.00
2022-11-12T23:04:36.052Z,101831.69
2022-11-12T23:07:02.361Z,101831.00
2022-11-12T23:09:28.570Z,101831.00
2022-11-12T23:11:54.786Z,101817.59
2022-11-12T23:14:21.146Z,101822.78
2022-11-12T23:16:47.349Z,101820.38
2022-11-12T23:19:13.569Z,101814.78
2022-11-12T23:21:39.777Z,101815.63
2022-11-12T23:24:05.962Z,101806.81
2022-11-12T23:26:33.277Z,101802.31
2022-11-12T23:28:59.551Z,101803.44
2022-11-12T23:31:25.734Z,101809.78
2022-11-12T23:33:51.924Z,101807.25
2022-11-12T23:36:18.126Z,101801.00
2022-11-12T23:38:44.360Z,101803.03
2022-11-12T23:41:10.602Z,101805.66
2022-11-12T23:43:36.792Z,101804.94
2022-11-12T23:46:02.982Z,101794.41
2022-11-12T23:48:29.566Z,101801.56
2022-11-12T23:50:55.947Z,101799.09
2022-11-12T23:53:22.216Z,101787.63
2022-11-12T23:55:48.410Z,101784.28
2022-11-12T23:58:14.598Z,101785.16
